createdAt,value
2022-11-24T00:00:46.268Z,7.8
2022-11-24T00:06:43.478Z,7.8
2022-11-24T00:12:34.492Z,7.7
2022-11-24T00:18:24.903Z,7.7
2022-11-24T00:24:16.777Z,7.8
2022-11-24T00:30:06.072Z,7.7
2022-11-24T00:35:57.229Z,7.6
2022-11-24T00:41:53.988Z,7.6
2022-11-24T01:00:51.512Z,6.9
2022-11-24T01:12:57.705Z,7
2022-11-24T01:19:24.323Z,6.9
2022-11-24T01:25:58.355Z,7.1
2022-11-24T01:32:25.543Z,7.4
2022-11-24T01:51:53.279Z,7.2
2022-11-24T02:04:37.453Z,7
2022-11-24T02:10:47.981Z,6.8
2022-11-24T02:23:26.157Z,7
2022-11-24T02:29:41.526Z,7.1
2022-11-24T02:36:03.571Z,7.1
2022-11-24T02:48:26.877Z,7.1
2022-11-24T03:07:22.516Z,6.6
2022-11-24T03:26:07.119Z,7
2022-11-24T03:51:43.828Z,7.1
2022-11-24T04:10:16.002Z,7.2
2022-11-24T04:16:29.484Z,7.3
2022-11-24T04:22:39.675Z,7.5
2022-11-24T04:28:32.570Z,7.7
2022-11-24T04:34:34.727Z,7.7
2022-11-24T04:40:34.014Z,7.8
2022-11-24T04:46:30.735Z,7.9
2022-11-24T04:52:22.424Z,8
2022-11-24T04:58:13.658Z,8
2022-11-24T05:04:06.786Z,8.1
2022-11-24T05:09:59.473Z,8.2
2022-11-24T05:15:55.226Z,8.3
2022-11-24T05:21:47.811Z,8.3
2022-11-24T05:27:52.186Z,8.3
2022-11-24T05:33:46.652Z,8.3
2022-11-24T05:40:06.475Z,8.4
2022-11-24T05:52:54.148Z,8.4
2022-11-24T05:59:05.427Z,8.5
2022-11-24T06:05:00.647Z,8.6
2022-11-24T06:17:50.481Z,8.6
2022-11-24T06:59:09.071Z,8.4
2022-11-24T07:24:34.291Z,8.3
2022-11-24T07:37:04.772Z,8.3
2022-11-24T08:21:28.847Z,8.5
2022-11-24T08:27:21.509Z,8.4
2022-11-24T08:39:27.628Z,8.4
2022-11-24T08:45:23.880Z,8.5
2022-11-24T08:57:30.753Z,8.5
2022-11-24T09:03:26.410Z,8.6
2022-11-24T09:27:55.494Z,9.2
2022-11-24T09:33:56.324Z,9.3
2022-11-24T09:40:02.235Z,9.4
2022-11-24T10:49:46.042Z,10.4
2022-11-24T11:34:07.120Z,10.7
2022-11-24T11:58:38.144Z,11.1
2022-11-24T12:23:21.239Z,11.4
2022-11-24T12:36:01.236Z,11.5
2022-11-24T12:53:41.550Z,11.6
2022-11-24T13:00:21.324Z,11.8
2022-11-24T13:06:11.824Z,11.7
2022-11-24T13:12:03.854Z,11.7
2022-11-24T13:24:29.744Z,11.7
2022-11-24T13:30:29.551Z,11.7
2022-11-24T13:36:28.751Z,11.8
2022-11-24T13:42:41.396Z,11.7
2022-11-24T13:48:47.236Z,11.8
2022-11-24T13:54:43.563Z,11.7
2022-11-24T15:02:35.853Z,11.1
2022-11-24T15:08:34.112Z,11
2022-11-24T15:14:39.220Z,10.9
2022-11-24T15:20:35.924Z,10.7
2022-11-24T15:26:36.826Z,10.6
2022-11-24T15:32:32.827Z,10.6
2022-11-24T15:38:23.919Z,10.3
2022-11-24T15:44:16.284Z,10.1
2022-11-24T15:50:04.438Z,9.9
2022-11-24T15:55:54.430Z,9.8
2022-11-24T16:01:47.826Z,9.9
2022-11-24T16:07:38.681Z,9.7
2022-11-24T16:13:29.032Z,9.5
2022-11-24T16:19:17.949Z,9.4
2022-11-24T16:25:08.468Z,9.3
2022-11-24T16:30:59.390Z,9.2
2022-11-24T16:36:50.291Z,8.9
2022-11-24T16:42:41.956Z,8.9
2022-11-24T16:48:34.956Z,8.8
2022-11-24T16:54:25.186Z,8.8
2022-11-24T17:00:21.822Z,8.8
2022-11-24T17:06:14.411Z,8.9
2022-11-24T17:12:05.924Z,8.8
2022-11-24T17:18:22.738Z,8.7
2022-11-24T17:24:12.875Z,8.6
2022-11-24T17:30:09.491Z,8.6
2022-11-24T17:36:00.454Z,8.6
2022-11-24T17:41:52.125Z,8.6
2022-11-24T17:47:43.220Z,8.5
2022-11-24T17:53:44.540Z,8.5
2022-11-24T17:59:38.192Z,8.5
2022-11-24T18:05:39.341Z,8.5
2022-11-24T18:11:32.778Z,8.1
2022-11-24T18:17:26.163Z,8.3
2022-11-24T18:23:19.129Z,8.2
2022-11-24T18:29:12.491Z,8.2
2022-11-24T18:35:02.530Z,8.1
2022-11-24T18:40:53.162Z,8.1
2022-11-24T18:46:43.533Z,8.1
2022-11-24T18:52:34.481Z,8.2
2022-11-24T18:58:23.156Z,8.1
2022-11-24T19:04:12.041Z,7.9
2022-11-24T19:10:02.544Z,8
2022-11-24T19:15:52.792Z,8.1
2022-11-24T19:21:43.452Z,8
2022-11-24T19:27:31.986Z,8
2022-11-24T19:33:21.801Z,8
2022-11-24T19:39:16.015Z,7.9
2022-11-24T19:45:05.165Z,8
2022-11-24T19:50:56.076Z,7.9
2022-11-24T19:56:48.897Z,7.9
2022-11-24T20:02:39.598Z,7.8
2022-11-24T20:08:30.266Z,7.8
2022-11-24T20:14:20.589Z,7.8
2022-11-24T20:20:09.420Z,7.8
2022-11-24T20:25:59.265Z,7.9
2022-11-24T20:31:49.718Z,7.8
2022-11-24T20:37:39.978Z,7.7
2022-11-24T20:43:41.670Z,7.7
2022-11-24T20:49:32.583Z,7.6
2022-11-24T20:55:22.068Z,7.6
2022-11-24T21:01:15.861Z,7.7
2022-11-24T21:07:07.473Z,7.5
2022-11-24T21:12:58.446Z,7.6
2022-11-24T21:18:49.025Z,7.5
2022-11-24T21:24:38.721Z,7.4
2022-11-24T21:30:30.105Z,7.4
2022-11-24T21:36:20.641Z,7.4
2022-11-24T21:42:12.253Z,7.3
2022-11-24T21:48:03.428Z,7.4
2022-11-24T21:53:54.308Z,7.3
2022-11-24T21:59:45.751Z,7.3
2022-11-24T22:05:36.889Z,7.3
2022-11-24T22:11:27.678Z,7.3
2022-11-24T22:17:16.646Z,7.1
2022-11-24T22:23:07.504Z,7.1
2022-11-24T22:28:58.597Z,7.2
2022-11-24T22:34:49.347Z,7.2
2022-11-24T22:40:39.783Z,7.2
2022-11-24T22:46:30.381Z,7.2
2022-11-24T22:52:21.084Z,7.2
2022-11-24T22:58:11.439Z,7.2
2022-11-24T23:04:03.028Z,7.1
2022-11-24T23:10:00.550Z,7.1
2022-11-24T23:15:50.903Z,7
2022-11-24T23:21:42.927Z,7.1
2022-11-24T23:27:32.770Z,7.1
2022-11-24T23:33:24.613Z,7.1
2022-11-24T23:39:17.531Z,7
2022-11-24T23:45:09.235Z,7.1
2022-11-24T23:51:02.704Z,7.1
2022-11-24T23:56:55.233Z,7.1
